sensor_id;sensor_type;location;lat;lon;timestamp;temperature;humidity
27162;DHT22;54464;50.558;9.704;2024-02-21T00:02:11;7.00;99.90
27162;DHT22;54464;50.558;9.704;2024-02-21T00:04:36;7.00;99.90
27162;DHT22;54464;50.558;9.704;2024-02-21T00:07:04;7.00;99.90
27162;DHT22;54464;50.558;9.704;2024-02-21T00:09:29;7.00;99.90
27162;DHT22;54464;50.558;9.704;2024-02-21T00:11:55;7.00;99.90
27162;DHT22;54464;50.558;9.704;2024-02-21T00:14:20;6.90;99.90
27162;DHT22;54464;50.558;9.704;2024-02-21T00:16:47;6.90;99.90
27162;DHT22;54464;50.558;9.704;2024-02-21T00:19:12;6.90;99.90
27162;DHT22;54464;50.558;9.704;2024-02-21T00:21:40;6.90;99.90
27162;DHT22;54464;50.558;9.704;2024-02-21T00:24:05;6.90;99.90
27162;DHT22;54464;50.558;9.704;2024-02-21T00:26:31;6.90;99.90
27162;DHT22;54464;50.558;9.704;2024-02-21T00:28:57;6.90;99.90
27162;DHT22;54464;50.558;9.704;2024-02-21T00:31:22;6.90;99.90
27162;DHT22;54464;50.558;9.704;2024-02-21T00:33:48;6.90;99.90
27162;DHT22;54464;50.558;9.704;2024-02-21T00:36:13;6.90;99.90
27162;DHT22;54464;50.558;9.704;2024-02-21T00:38:40;6.90;99.90
27162;DHT22;54464;50.558;9.704;2024-02-21T00:41:05;6.90;99.90
27162;DHT22;54464;50.558;9.704;2024-02-21T00:43:31;6.90;99.90
27162;DHT22;54464;50.558;9.704;2024-02-21T00:45:56;6.90;99.90
27162;DHT22;54464;50.558;9.704;2024-02-21T00:48:22;6.90;99.90
27162;DHT22;54464;50.558;9.704;2024-02-21T00:50:48;6.90;99.90
27162;DHT22;54464;50.558;9.704;2024-02-21T00:53:13;6.90;99.90
27162;DHT22;54464;50.558;9.704;2024-02-21T00:55:39;6.90;99.90
27162;DHT22;54464;50.558;9.704;2024-02-21T00:58:05;6.80;99.90
27162;DHT22;54464;50.558;9.704;2024-02-21T01:00:31;6.90;99.90
27162;DHT22;54464;50.558;9.704;2024-02-21T01:02:57;6.90;99.90
27162;DHT22;54464;50.558;9.704;2024-02-21T01:05:25;6.90;99.90
27162;DHT22;54464;50.558;9.704;2024-02-21T01:07:52;6.90;99.90
27162;DHT22;54464;50.558;9.704;2024-02-21T01:10:18;6.90;99.90
27162;DHT22;54464;50.558;9.704;2024-02-21T01:12:43;6.80;99.90
27162;DHT22;54464;50.558;9.704;2024-02-21T01:15:09;6.80;99.90
27162;DHT22;54464;50.558;9.704;2024-02-21T01:17:35;6.90;99.90
27162;DHT22;54464;50.558;9.704;2024-02-21T01:20:01;6.80;99.90
27162;DHT22;54464;50.558;9.704;2024-02-21T01:22:27;6.80;99.90
27162;DHT22;54464;50.558;9.704;2024-02-21T01:24:52;6.80;99.90
27162;DHT22;54464;50.558;9.704;2024-02-21T01:27:18;6.90;99.90
27162;DHT22;54464;50.558;9.704;2024-02-21T01:29:44;6.80;99.90
27162;DHT22;54464;50.558;9.704;2024-02-21T01:32:09;6.80;99.90
27162;DHT22;54464;50.558;9.704;2024-02-21T01:34:35;6.90;99.90
27162;DHT22;54464;50.558;9.704;2024-02-21T01:37:00;6.90;99.90
27162;DHT22;54464;50.558;9.704;2024-02-21T01:39:29;6.80;99.90
27162;DHT22;54464;50.558;9.704;2024-02-21T01:41:55;6.80;99.90
27162;DHT22;54464;50.558;9.704;2024-02-21T01:44:21;6.80;99.90
27162;DHT22;54464;50.558;9.704;2024-02-21T01:46:46;6.80;99.90
27162;DHT22;54464;50.558;9.704;2024-02-21T01:49:12;6.90;99.90
27162;DHT22;54464;50.558;9.704;2024-02-21T01:51:38;6.80;99.90
27162;DHT22;54464;50.558;9.704;2024-02-21T01:54:04;6.90;99.90
27162;DHT22;54464;50.558;9.704;2024-02-21T01:56:30;6.80;99.90
27162;DHT22;54464;50.558;9.704;2024-02-21T01:58:56;6.80;99.90
27162;DHT22;54464;50.558;9.704;2024-02-21T02:01:22;6.80;99.90
27162;DHT22;54464;50.558;9.704;2024-02-21T02:03:48;6.80;99.90
27162;DHT22;54464;50.558;9.704;2024-02-21T02:06:14;6.80;99.90
27162;DHT22;54464;50.558;9.704;2024-02-21T02:08:40;6.80;99.90
27162;DHT22;54464;50.558;9.704;2024-02-21T02:11:05;6.80;99.90
27162;DHT22;54464;50.558;9.704;2024-02-21T02:13:32;6.80;99.90
27162;DHT22;54464;50.558;9.704;2024-02-21T02:15:58;6.80;99.90
27162;DHT22;54464;50.558;9.704;2024-02-21T02:18:23;6.80;99.90
27162;DHT22;54464;50.558;9.704;2024-02-21T02:20:49;6.80;99.90
27162;DHT22;54464;50.558;9.704;2024-02-21T02:23:30;6.70;99.90
27162;DHT22;54464;50.558;9.704;2024-02-21T02:25:59;6.80;99.90
27162;DHT22;54464;50.558;9.704;2024-02-21T02:28:26;6.80;99.90
27162;DHT22;54464;50.558;9.704;2024-02-21T02:30:52;6.70;99.90
27162;DHT22;54464;50.558;9.704;2024-02-21T02:33:18;6.70;99.90
27162;DHT22;54464;50.558;9.704;2024-02-21T02:35:43;6.70;99.90
27162;DHT22;54464;50.558;9.704;2024-02-21T02:38:09;6.70;99.90
27162;DHT22;54464;50.558;9.704;2024-02-21T02:40:38;6.70;99.90
27162;DHT22;54464;50.558;9.704;2024-02-21T02:43:04;6.70;99.90
27162;DHT22;54464;50.558;9.704;2024-02-21T02:45:29;6.70;99.90
27162;DHT22;54464;50.558;9.704;2024-02-21T02:47:55;6.70;99.90
27162;DHT22;54464;50.558;9.704;2024-02-21T02:50:23;6.70;99.90
27162;DHT22;54464;50.558;9.704;2024-02-21T02:52:51;6.70;99.90
27162;DHT22;54464;50.558;9.704;2024-02-21T02:55:17;6.70;99.90
27162;DHT22;54464;50.558;9.704;2024-02-21T02:57:43;6.70;99.90
27162;DHT22;54464;50.558;9.704;2024-02-21T03:00:10;6.70;99.90
27162;DHT22;54464;50.558;9.704;2024-02-21T03:02:37;6.70;99.90
27162;DHT22;54464;50.558;9.704;2024-02-21T03:05:15;6.70;99.90
27162;DHT22;54464;50.558;9.704;2024-02-21T03:07:43;6.70;99.90
27162;DHT22;54464;50.558;9.704;2024-02-21T03:10:10;6.70;99.90
27162;DHT22;54464;50.558;9.704;2024-02-21T03:12:35;6.70;99.90
27162;DHT22;54464;50.558;9.704;2024-02-21T03:15:01;6.70;99.90
27162;DHT22;54464;50.558;9.704;2024-02-21T03:17:27;6.60;99.90
27162;DHT22;54464;50.558;9.704;2024-02-21T03:19:53;6.70;99.90
27162;DHT22;54464;50.558;9.704;2024-02-21T03:22:21;6.70;99.90
27162;DHT22;54464;50.558;9.704;2024-02-21T03:24:46;6.70;99.90
27162;DHT22;54464;50.558;9.704;2024-02-21T03:27:12;6.70;99.90
27162;DHT22;54464;50.558;9.704;2024-02-21T03:29:38;6.70;99.90
27162;DHT22;54464;50.558;9.704;2024-02-21T03:32:03;6.60;99.90
27162;DHT22;54464;50.558;9.704;2024-02-21T03:34:29;6.60;99.90
27162;DHT22;54464;50.558;9.704;2024-02-21T03:36:54;6.60;99.90
27162;DHT22;54464;50.558;9.704;2024-02-21T03:39:20;6.60;99.90
27162;DHT22;54464;50.558;9.704;2024-02-21T03:41:46;6.60;99.90
27162;DHT22;54464;50.558;9.704;2024-02-21T03:44:12;6.60;99.90
27162;DHT22;54464;50.558;9.704;2024-02-21T03:46:41;6.60;99.90
27162;DHT22;54464;50.558;9.704;2024-02-21T03:49:07;6.60;99.90
27162;DHT22;54464;50.558;9.704;2024-02-21T03:51:32;6.60;99.90
27162;DHT22;54464;50.558;9.704;2024-02-21T03:53:58;6.60;99.90
27162;DHT22;54464;50.558;9.704;2024-02-21T03:56:23;6.60;99.90
27162;DHT22;54464;50.558;9.704;2024-02-21T03:58:49;6.60;99.90
27162;DHT22;54464;50.558;9.704;2024-02-21T04:01:15;6.60;99.90
27162;DHT22;54464;50.558;9.704;2024-02-21T04:03:43;6.60;99.90
27162;DHT22;54464;50.558;9.704;2024-02-21T04:06:09;6.60;99.90
27162;DHT22;54464;50.558;9.704;2024-02-21T04:08:35;6.60;99.90
27162;DHT22;54464;50.558;9.704;2024-02-21T04:11:00;6.50;99.90
27162;DHT22;54464;50.558;9.704;2024-02-21T04:13:26;6.50;99.90
27162;DHT22;54464;50.558;9.704;2024-02-21T04:15:52;6.50;99.90
27162;DHT22;54464;50.558;9.704;2024-02-21T04:18:17;6.50;99.90
27162;DHT22;54464;50.558;9.704;2024-02-21T04:20:43;6.50;99.90
27162;DHT22;54464;50.558;9.704;2024-02-21T04:23:09;6.50;99.90
27162;DHT22;54464;50.558;9.704;2024-02-21T04:25:34;6.50;99.90
27162;DHT22;54464;50.558;9.704;2024-02-21T04:28:00;6.60;99.90
27162;DHT22;54464;50.558;9.704;2024-02-21T04:30:26;6.50;99.90
27162;DHT22;54464;50.558;9.704;2024-02-21T04:32:51;6.50;99.90
27162;DHT22;54464;50.558;9.704;2024-02-21T04:35:17;6.50;99.90
27162;DHT22;54464;50.558;9.704;2024-02-21T04:37:42;6.50;99.90
27162;DHT22;54464;50.558;9.704;2024-02-21T04:40:08;6.50;99.90
27162;DHT22;54464;50.558;9.704;2024-02-21T04:42:35;6.50;99.90
27162;DHT22;54464;50.558;9.704;2024-02-21T04:45:01;6.50;99.90
27162;DHT22;54464;50.558;9.704;2024-02-21T04:47:27;6.50;99.90
27162;DHT22;54464;50.558;9.704;2024-02-21T04:49:52;6.50;99.90
27162;DHT22;54464;50.558;9.704;2024-02-21T04:52:18;6.50;99.90
27162;DHT22;54464;50.558;9.704;2024-02-21T04:54:44;6.50;99.90
27162;DHT22;54464;50.558;9.704;2024-02-21T04:57:09;6.50;99.90
27162;DHT22;54464;50.558;9.704;2024-02-21T04:59:37;6.60;99.90
27162;DHT22;54464;50.558;9.704;2024-02-21T05:02:03;6.60;99.90
27162;DHT22;54464;50.558;9.704;2024-02-21T05:04:28;6.60;99.90
27162;DHT22;54464;50.558;9.704;2024-02-21T05:06:54;6.60;99.90
27162;DHT22;54464;50.558;9.704;2024-02-21T05:09:20;6.60;99.90
27162;DHT22;54464;50.558;9.704;2024-02-21T05:11:45;6.60;99.90
27162;DHT22;54464;50.558;9.704;2024-02-21T05:14:11;6.60;99.90
27162;DHT22;54464;50.558;9.704;2024-02-21T05:16:38;6.60;99.90
27162;DHT22;54464;50.558;9.704;2024-02-21T05:19:04;6.60;99.90
27162;DHT22;54464;50.558;9.704;2024-02-21T05:21:29;6.60;99.90
27162;DHT22;54464;50.558;9.704;2024-02-21T05:23:55;6.50;99.90
27162;DHT22;54464;50.558;9.704;2024-02-21T05:26:24;6.60;99.90
27162;DHT22;54464;50.558;9.704;2024-02-21T05:28:50;6.50;99.90
27162;DHT22;54464;50.558;9.704;2024-02-21T05:31:19;6.50;99.90
27162;DHT22;54464;50.558;9.704;2024-02-21T05:33:45;6.40;99.90
27162;DHT22;54464;50.558;9.704;2024-02-21T05:36:11;6.40;99.90
27162;DHT22;54464;50.558;9.704;2024-02-21T05:38:37;6.40;99.90
27162;DHT22;54464;50.558;9.704;2024-02-21T05:41:03;6.50;99.90
27162;DHT22;54464;50.558;9.704;2024-02-21T05:43:29;6.50;99.90
27162;DHT22;54464;50.558;9.704;2024-02-21T05:45:55;6.60;99.90
27162;DHT22;54464;50.558;9.704;2024-02-21T05:48:21;6.50;99.90
27162;DHT22;54464;50.558;9.704;2024-02-21T05:50:47;6.60;99.90
27162;DHT22;54464;50.558;9.704;2024-02-21T05:53:12;6.60;99.90
27162;DHT22;54464;50.558;9.704;2024-02-21T05:55:38;6.60;99.90
27162;DHT22;54464;50.558;9.704;2024-02-21T05:58:04;6.60;99.90
27162;DHT22;54464;50.558;9.704;2024-02-21T06:00:31;6.60;99.90
27162;DHT22;54464;50.558;9.704;2024-02-21T06:02:57;6.60;99.90
27162;DHT22;54464;50.558;9.704;2024-02-21T06:05:23;6.60;99.90
27162;DHT22;54464;50.558;9.704;2024-02-21T06:07:48;6.60;99.90
27162;DHT22;54464;50.558;9.704;2024-02-21T06:10:14;6.60;99.90
27162;DHT22;54464;50.558;9.704;2024-02-21T06:12:39;6.60;99.90
27162;DHT22;54464;50.558;9.704;2024-02-21T06:15:05;6.60;99.90
27162;DHT22;54464;50.558;9.704;2024-02-21T06:17:31;6.60;99.90
27162;DHT22;54464;50.558;9.704;2024-02-21T06:19:57;6.60;99.90
27162;DHT22;54464;50.558;9.704;2024-02-21T06:22:23;6.60;99.90
27162;DHT22;54464;50.558;9.704;2024-02-21T06:24:48;6.70;99.90
27162;DHT22;54464;50.558;9.704;2024-02-21T06:27:14;6.70;99.90
27162;DHT22;54464;50.558;9.704;2024-02-21T06:29:41;6.70;99.90
27162;DHT22;54464;50.558;9.704;2024-02-21T06:32:07;6.70;99.90
27162;DHT22;54464;50.558;9.704;2024-02-21T06:34:33;6.70;99.90
27162;DHT22;54464;50.558;9.704;2024-02-21T06:36:58;6.70;99.90
27162;DHT22;54464;50.558;9.704;2024-02-21T06:39:24;6.70;99.90
27162;DHT22;54464;50.558;9.704;2024-02-21T06:41:50;6.70;99.90
27162;DHT22;54464;50.558;9.704;2024-02-21T06:44:17;6.70;99.90
27162;DHT22;54464;50.558;9.704;2024-02-21T06:46:43;6.70;99.90
27162;DHT22;54464;50.558;9.704;2024-02-21T06:49:08;6.70;99.90
27162;DHT22;54464;50.558;9.704;2024-02-21T06:51:34;6.70;99.90
27162;DHT22;54464;50.558;9.704;2024-02-21T06:54:00;6.70;99.90
27162;DHT22;54464;50.558;9.704;2024-02-21T06:56:26;6.70;99.90
27162;DHT22;54464;50.558;9.704;2024-02-21T06:58:57;6.80;99.90
27162;DHT22;54464;50.558;9.704;2024-02-21T07:01:24;6.70;99.90
27162;DHT22;54464;50.558;9.704;2024-02-21T07:03:53;6.70;99.90
27162;DHT22;54464;50.558;9.704;2024-02-21T07:06:18;6.70;99.90
27162;DHT22;54464;50.558;9.704;2024-02-21T07:08:44;6.70;99.90
27162;DHT22;54464;50.558;9.704;2024-02-21T07:11:10;6.70;99.90
27162;DHT22;54464;50.558;9.704;2024-02-21T07:13:36;6.70;99.90
27162;DHT22;54464;50.558;9.704;2024-02-21T07:16:02;6.70;99.90
27162;DHT22;54464;50.558;9.704;2024-02-21T07:18:27;6.60;99.90
27162;DHT22;54464;50.558;9.704;2024-02-21T07:20:53;6.60;99.90
27162;DHT22;54464;50.558;9.704;2024-02-21T07:23:19;6.60;99.90
27162;DHT22;54464;50.558;9.704;2024-02-21T07:25:44;6.60;99.90
27162;DHT22;54464;50.558;9.704;2024-02-21T07:28:10;6.60;99.90
27162;DHT22;54464;50.558;9.704;2024-02-21T07:30:36;6.60;99.90
27162;DHT22;54464;50.558;9.704;2024-02-21T07:33:02;6.60;99.90
27162;DHT22;54464;50.558;9.704;2024-02-21T07:35:27;6.60;99.90
27162;DHT22;54464;50.558;9.704;2024-02-21T07:37:53;6.60;99.90
27162;DHT22;54464;50.558;9.704;2024-02-21T07:40:19;6.60;99.90
27162;DHT22;54464;50.558;9.704;2024-02-21T07:42:45;6.60;99.90
27162;DHT22;54464;50.558;9.704;2024-02-21T07:45:10;6.60;99.90
27162;DHT22;54464;50.558;9.704;2024-02-21T07:47:37;6.60;99.90
27162;DHT22;54464;50.558;9.704;2024-02-21T07:50:03;6.60;99.90
27162;DHT22;54464;50.558;9.704;2024-02-21T07:52:29;6.60;99.90
27162;DHT22;54464;50.558;9.704;2024-02-21T07:54:54;6.70;99.90
27162;DHT22;54464;50.558;9.704;2024-02-21T07:57:20;6.60;99.90
27162;DHT22;54464;50.558;9.704;2024-02-21T07:59:46;6.70;99.90
27162;DHT22;54464;50.558;9.704;2024-02-21T08:02:16;6.70;99.90
27162;DHT22;54464;50.558;9.704;2024-02-21T08:04:42;6.60;99.90
27162;DHT22;54464;50.558;9.704;2024-02-21T08:07:09;6.70;99.90
27162;DHT22;54464;50.558;9.704;2024-02-21T08:09:35;6.70;99.90
27162;DHT22;54464;50.558;9.704;2024-02-21T08:12:03;6.70;99.90
27162;DHT22;54464;50.558;9.704;2024-02-21T08:14:29;6.60;99.90
27162;DHT22;54464;50.558;9.704;2024-02-21T08:16:55;6.60;99.90
27162;DHT22;54464;50.558;9.704;2024-02-21T08:19:21;6.60;99.90
27162;DHT22;54464;50.558;9.704;2024-02-21T08:21:47;6.60;99.90
27162;DHT22;54464;50.558;9.704;2024-02-21T08:24:16;6.60;99.90
27162;DHT22;54464;50.558;9.704;2024-02-21T08:26:42;6.70;99.90
27162;DHT22;54464;50.558;9.704;2024-02-21T08:29:10;6.70;99.90
27162;DHT22;54464;50.558;9.704;2024-02-21T08:31:36;6.70;99.90
27162;DHT22;54464;50.558;9.704;2024-02-21T08:34:01;6.70;99.90
27162;DHT22;54464;50.558;9.704;2024-02-21T08:36:30;6.70;99.90
27162;DHT22;54464;50.558;9.704;2024-02-21T08:38:56;6.80;99.90
27162;DHT22;54464;50.558;9.704;2024-02-21T08:41:23;6.80;99.90
27162;DHT22;54464;50.558;9.704;2024-02-21T08:43:53;6.80;99.90
27162;DHT22;54464;50.558;9.704;2024-02-21T08:46:23;6.80;99.90
27162;DHT22;54464;50.558;9.704;2024-02-21T08:48:50;6.90;99.90
27162;DHT22;54464;50.558;9.704;2024-02-21T08:51:16;6.90;99.90
27162;DHT22;54464;50.558;9.704;2024-02-21T08:53:43;7.00;99.90
27162;DHT22;54464;50.558;9.704;2024-02-21T08:56:08;7.00;99.90
27162;DHT22;54464;50.558;9.704;2024-02-21T08:58:35;6.90;99.90
27162;DHT22;54464;50.558;9.704;2024-02-21T09:01:02;7.00;99.90
27162;DHT22;54464;50.558;9.704;2024-02-21T09:03:31;7.00;99.90
27162;DHT22;54464;50.558;9.704;2024-02-21T09:05:57;7.10;99.90
27162;DHT22;54464;50.558;9.704;2024-02-21T09:08:22;7.10;99.90
27162;DHT22;54464;50.558;9.704;2024-02-21T09:10:49;7.20;99.90
27162;DHT22;54464;50.558;9.704;2024-02-21T09:13:15;7.10;99.90
27162;DHT22;54464;50.558;9.704;2024-02-21T09:15:40;7.10;99.90
27162;DHT22;54464;50.558;9.704;2024-02-21T09:18:06;7.20;99.90
27162;DHT22;54464;50.558;9.704;2024-02-21T09:20:32;7.30;99.90
27162;DHT22;54464;50.558;9.704;2024-02-21T09:22:57;7.30;99.90
27162;DHT22;54464;50.558;9.704;2024-02-21T09:25:23;7.50;99.90
27162;DHT22;54464;50.558;9.704;2024-02-21T09:27:48;7.40;99.90
27162;DHT22;54464;50.558;9.704;2024-02-21T09:30:14;7.40;99.90
27162;DHT22;54464;50.558;9.704;2024-02-21T09:32:39;7.30;99.90
27162;DHT22;54464;50.558;9.704;2024-02-21T09:35:05;7.40;99.90
27162;DHT22;54464;50.558;9.704;2024-02-21T09:37:31;7.40;99.90
27162;DHT22;54464;50.558;9.704;2024-02-21T09:39:57;7.40;99.90
27162;DHT22;54464;50.558;9.704;2024-02-21T09:42:27;7.40;99.90
27162;DHT22;54464;50.558;9.704;2024-02-21T09:44:56;7.40;99.90
27162;DHT22;54464;50.558;9.704;2024-02-21T09:47:24;7.40;99.90
27162;DHT22;54464;50.558;9.704;2024-02-21T09:49:52;7.50;99.90
27162;DHT22;54464;50.558;9.704;2024-02-21T09:52:19;7.60;99.90
27162;DHT22;54464;50.558;9.704;2024-02-21T09:54:46;7.80;99.90
27162;DHT22;54464;50.558;9.704;2024-02-21T09:57:14;7.70;99.90
27162;DHT22;54464;50.558;9.704;2024-02-21T09:59:40;7.70;99.90
27162;DHT22;54464;50.558;9.704;2024-02-21T10:02:09;7.70;99.90
27162;DHT22;54464;50.558;9.704;2024-02-21T10:04:34;7.70;99.90
27162;DHT22;54464;50.558;9.704;2024-02-21T10:07:00;7.70;99.90
27162;DHT22;54464;50.558;9.704;2024-02-21T10:09:27;7.70;99.90
27162;DHT22;54464;50.558;9.704;2024-02-21T10:11:54;7.60;99.90
27162;DHT22;54464;50.558;9.704;2024-02-21T10:14:20;7.70;99.90
27162;DHT22;54464;50.558;9.704;2024-02-21T10:16:57;7.80;99.90
27162;DHT22;54464;50.558;9.704;2024-02-21T10:19:24;8.00;99.90
27162;DHT22;54464;50.558;9.704;2024-02-21T10:22:07;8.20;99.90
27162;DHT22;54464;50.558;9.704;2024-02-21T10:24:35;8.30;99.90
27162;DHT22;54464;50.558;9.704;2024-02-21T10:27:07;8.50;99.90
27162;DHT22;54464;50.558;9.704;2024-02-21T10:29:39;8.70;99.90
27162;DHT22;54464;50.558;9.704;2024-02-21T10:32:13;8.70;99.90
27162;DHT22;54464;50.558;9.704;2024-02-21T10:34:40;8.70;99.90
27162;DHT22;54464;50.558;9.704;2024-02-21T10:37:09;8.70;99.90
27162;DHT22;54464;50.558;9.704;2024-02-21T10:39:40;8.70;99.90
27162;DHT22;54464;50.558;9.704;2024-02-21T10:42:06;8.70;99.90
27162;DHT22;54464;50.558;9.704;2024-02-21T10:44:34;8.70;99.90
27162;DHT22;54464;50.558;9.704;2024-02-21T10:47:07;8.60;99.90
27162;DHT22;54464;50.558;9.704;2024-02-21T10:49:39;8.60;99.90
27162;DHT22;54464;50.558;9.704;2024-02-21T10:57:19;8.60;99.90
27162;DHT22;54464;50.558;9.704;2024-02-21T10:59:48;8.50;99.90
27162;DHT22;54464;50.558;9.704;2024-02-21T11:02:14;8.50;99.90
27162;DHT22;54464;50.558;9.704;2024-02-21T11:04:40;8.60;99.90
27162;DHT22;54464;50.558;9.704;2024-02-21T11:07:06;8.50;99.90
27162;DHT22;54464;50.558;9.704;2024-02-21T11:09:33;8.60;99.90
27162;DHT22;54464;50.558;9.704;2024-02-21T11:12:02;8.60;99.90
27162;DHT22;54464;50.558;9.704;2024-02-21T11:14:29;8.60;99.90
27162;DHT22;54464;50.558;9.704;2024-02-21T11:16:58;8.60;99.90
27162;DHT22;54464;50.558;9.704;2024-02-21T11:19:28;8.50;99.90
27162;DHT22;54464;50.558;9.704;2024-02-21T11:21:55;8.50;99.90
27162;DHT22;54464;50.558;9.704;2024-02-21T11:26:52;8.50;99.90
27162;DHT22;54464;50.558;9.704;2024-02-21T11:29:26;8.50;99.90
27162;DHT22;54464;50.558;9.704;2024-02-21T11:31:51;8.50;99.90
27162;DHT22;54464;50.558;9.704;2024-02-21T11:34:18;8.50;99.90
27162;DHT22;54464;50.558;9.704;2024-02-21T11:36:51;8.50;99.90
27162;DHT22;54464;50.558;9.704;2024-02-21T11:39:22;8.50;99.90
27162;DHT22;54464;50.558;9.704;2024-02-21T11:42:03;8.50;99.90
27162;DHT22;54464;50.558;9.704;2024-02-21T11:44:29;8.50;99.90
27162;DHT22;54464;50.558;9.704;2024-02-21T11:46:58;8.60;99.90
27162;DHT22;54464;50.558;9.704;2024-02-21T11:49:30;8.70;99.90
27162;DHT22;54464;50.558;9.704;2024-02-21T11:52:06;8.80;99.90
27162;DHT22;54464;50.558;9.704;2024-02-21T11:54:35;8.90;99.90
27162;DHT22;54464;50.558;9.704;2024-02-21T11:57:01;8.90;99.90
27162;DHT22;54464;50.558;9.704;2024-02-21T11:59:29;8.80;99.90
27162;DHT22;54464;50.558;9.704;2024-02-21T12:01:55;8.70;99.90
27162;DHT22;54464;50.558;9.704;2024-02-21T12:04:21;8.70;99.90
27162;DHT22;54464;50.558;9.704;2024-02-21T12:06:49;8.60;99.90
27162;DHT22;54464;50.558;9.704;2024-02-21T12:09:15;8.70;99.90
27162;DHT22;54464;50.558;9.704;2024-02-21T12:11:41;8.80;99.90
27162;DHT22;54464;50.558;9.704;2024-02-21T12:14:07;8.90;99.90
27162;DHT22;54464;50.558;9.704;2024-02-21T12:16:35;9.00;99.90
27162;DHT22;54464;50.558;9.704;2024-02-21T12:19:04;9.00;99.90
27162;DHT22;54464;50.558;9.704;2024-02-21T12:21:31;9.00;99.90
27162;DHT22;54464;50.558;9.704;2024-02-21T12:23:58;9.10;99.90
27162;DHT22;54464;50.558;9.704;2024-02-21T12:26:24;9.20;99.90
27162;DHT22;54464;50.558;9.704;2024-02-21T12:28:50;9.30;99.90
27162;DHT22;54464;50.558;9.704;2024-02-21T12:31:15;9.40;99.90
27162;DHT22;54464;50.558;9.704;2024-02-21T12:33:42;9.30;99.90
27162;DHT22;54464;50.558;9.704;2024-02-21T12:36:07;9.30;99.90
27162;DHT22;54464;50.558;9.704;2024-02-21T12:38:36;9.30;99.90
27162;DHT22;54464;50.558;9.704;2024-02-21T12:41:02;9.30;99.90
27162;DHT22;54464;50.558;9.704;2024-02-21T12:43:28;9.40;99.90
27162;DHT22;54464;50.558;9.704;2024-02-21T12:45:54;9.20;99.90
27162;DHT22;54464;50.558;9.704;2024-02-21T12:48:20;9.30;99.90
27162;DHT22;54464;50.558;9.704;2024-02-21T12:50:50;9.40;99.90
27162;DHT22;54464;50.558;9.704;2024-02-21T12:53:19;9.30;99.90
27162;DHT22;54464;50.558;9.704;2024-02-21T12:55:50;9.20;99.90
27162;DHT22;54464;50.558;9.704;2024-02-21T12:58:16;9.20;99.90
27162;DHT22;54464;50.558;9.704;2024-02-21T13:00:42;9.10;99.90
27162;DHT22;54464;50.558;9.704;2024-02-21T13:03:08;9.10;99.90
27162;DHT22;54464;50.558;9.704;2024-02-21T13:05:35;9.10;99.90
27162;DHT22;54464;50.558;9.704;2024-02-21T13:08:01;9.00;99.90
27162;DHT22;54464;50.558;9.704;2024-02-21T13:10:27;9.00;99.90
27162;DHT22;54464;50.558;9.704;2024-02-21T13:12:52;9.00;99.90
27162;DHT22;54464;50.558;9.704;2024-02-21T13:15:19;8.90;99.90
27162;DHT22;54464;50.558;9.704;2024-02-21T13:17:48;8.90;99.90
27162;DHT22;54464;50.558;9.704;2024-02-21T13:20:13;8.90;99.90
27162;DHT22;54464;50.558;9.704;2024-02-21T13:22:39;9.00;99.90
27162;DHT22;54464;50.558;9.704;2024-02-21T13:25:05;9.00;99.90
27162;DHT22;54464;50.558;9.704;2024-02-21T13:27:33;8.90;99.90
27162;DHT22;54464;50.558;9.704;2024-02-21T13:29:58;8.90;99.90
27162;DHT22;54464;50.558;9.704;2024-02-21T13:32:25;8.80;99.90
27162;DHT22;54464;50.558;9.704;2024-02-21T13:34:51;8.90;99.90
27162;DHT22;54464;50.558;9.704;2024-02-21T13:37:17;8.90;99.90
27162;DHT22;54464;50.558;9.704;2024-02-21T13:39:43;8.90;99.90
27162;DHT22;54464;50.558;9.704;2024-02-21T13:42:09;8.80;99.90
27162;DHT22;54464;50.558;9.704;2024-02-21T13:44:34;8.70;99.90
27162;DHT22;54464;50.558;9.704;2024-02-21T13:47:01;8.70;99.90
27162;DHT22;54464;50.558;9.704;2024-02-21T13:49:27;8.70;99.90
27162;DHT22;54464;50.558;9.704;2024-02-21T13:51:54;8.70;99.90
27162;DHT22;54464;50.558;9.704;2024-02-21T13:54:19;8.80;99.90
27162;DHT22;54464;50.558;9.704;2024-02-21T13:56:46;8.70;99.90
27162;DHT22;54464;50.558;9.704;2024-02-21T13:59:12;8.70;99.90
27162;DHT22;54464;50.558;9.704;2024-02-21T14:01:41;8.70;99.90
27162;DHT22;54464;50.558;9.704;2024-02-21T14:04:08;8.80;99.90
27162;DHT22;54464;50.558;9.704;2024-02-21T14:06:33;8.80;99.90
27162;DHT22;54464;50.558;9.704;2024-02-21T14:08:59;8.80;99.90
27162;DHT22;54464;50.558;9.704;2024-02-21T14:11:25;8.90;99.90
27162;DHT22;54464;50.558;9.704;2024-02-21T14:13:52;8.80;99.90
27162;DHT22;54464;50.558;9.704;2024-02-21T14:16:18;8.90;99.90
27162;DHT22;54464;50.558;9.704;2024-02-21T14:18:43;8.90;99.90
27162;DHT22;54464;50.558;9.704;2024-02-21T14:21:10;8.90;99.90
27162;DHT22;54464;50.558;9.704;2024-02-21T14:23:38;8.80;99.90
27162;DHT22;54464;50.558;9.704;2024-02-21T14:26:04;8.90;99.90
27162;DHT22;54464;50.558;9.704;2024-02-21T14:28:32;8.90;99.90
27162;DHT22;54464;50.558;9.704;2024-02-21T14:31:01;8.90;99.90
27162;DHT22;54464;50.558;9.704;2024-02-21T14:33:29;8.90;99.90
27162;DHT22;54464;50.558;9.704;2024-02-21T14:35:56;8.90;99.90
27162;DHT22;54464;50.558;9.704;2024-02-21T14:38:21;8.90;99.90
27162;DHT22;54464;50.558;9.704;2024-02-21T14:40:47;8.90;99.90
27162;DHT22;54464;50.558;9.704;2024-02-21T14:43:13;8.90;99.90
27162;DHT22;54464;50.558;9.704;2024-02-21T14:45:38;8.90;99.90
27162;DHT22;54464;50.558;9.704;2024-02-21T14:48:05;8.90;99.90
27162;DHT22;54464;50.558;9.704;2024-02-21T14:50:31;8.90;99.90
27162;DHT22;54464;50.558;9.704;2024-02-21T14:52:56;9.00;99.90
27162;DHT22;54464;50.558;9.704;2024-02-21T14:55:22;8.90;99.90
27162;DHT22;54464;50.558;9.704;2024-02-21T14:57:49;8.90;99.90
27162;DHT22;54464;50.558;9.704;2024-02-21T15:00:15;8.90;99.90
27162;DHT22;54464;50.558;9.704;2024-02-21T15:02:40;8.90;99.90
27162;DHT22;54464;50.558;9.704;2024-02-21T15:05:06;8.90;99.90
27162;DHT22;54464;50.558;9.704;2024-02-21T15:07:32;9.00;99.90
27162;DHT22;54464;50.558;9.704;2024-02-21T15:09:58;9.00;99.90
27162;DHT22;54464;50.558;9.704;2024-02-21T15:12:24;9.00;99.90
27162;DHT22;54464;50.558;9.704;2024-02-21T15:14:50;9.00;99.90
27162;DHT22;54464;50.558;9.704;2024-02-21T15:17:17;9.00;99.90
27162;DHT22;54464;50.558;9.704;2024-02-21T15:19:43;9.00;99.90
27162;DHT22;54464;50.558;9.704;2024-02-21T15:22:13;9.00;99.90
27162;DHT22;54464;50.558;9.704;2024-02-21T15:24:41;9.00;99.90
27162;DHT22;54464;50.558;9.704;2024-02-21T15:27:07;9.00;99.90
27162;DHT22;54464;50.558;9.704;2024-02-21T15:29:36;9.00;99.90
27162;DHT22;54464;50.558;9.704;2024-02-21T15:32:02;9.00;99.90
27162;DHT22;54464;50.558;9.704;2024-02-21T15:34:28;9.00;99.90
27162;DHT22;54464;50.558;9.704;2024-02-21T15:36:54;9.00;99.90
27162;DHT22;54464;50.558;9.704;2024-02-21T15:39:19;9.00;99.90
27162;DHT22;54464;50.558;9.704;2024-02-21T15:41:45;9.00;99.90
27162;DHT22;54464;50.558;9.704;2024-02-21T15:44:10;9.00;99.90
27162;DHT22;54464;50.558;9.704;2024-02-21T15:46:36;9.00;99.90
27162;DHT22;54464;50.558;9.704;2024-02-21T15:49:03;9.00;99.90